Terminal Aerodrome Forecast
Issued by NWS

Home | Current Version | Previous Version | Text Only | Print | Product List | Glossary On
Versions: 1 2 3 4 5 6 7 8 9 10 11 12 13 14 15 16 17
000
FTUS43 KJKL 242337
TAFSJS
TAF
KSJS 242337Z 2500/2524 19009KT P6SM SCT200
     FM250400 19007KT 5SM -TSRA BKN080CB
     FM250600 25008KT 3SM SHRA OVC030
     FM251900 27012G22KT 5SM -SHRA BKN035
     FM252100 27012G21KT P6SM BKN040=

USA.gov is the U.S. government's official web portal to all federal, state and local government web resources and services.